Coushatta — GDF4876 — position and weather

sailwx.info

Track history (hours):
 
Tides and Currents Weather Stations Pressure Air Temp Water Temp Dewpoint Dewpoint Depression Visibility Wind Speed Wind Dir Waves Ship Positions

Coushatta

Last reported at 2018-Jan-19 14:13 UTC. Time now 2018-Jan-20 18:35 UTC.
Position N 29°29' W 094°52'.

Length 22 m; draft 3 m.

Type: Towing. MMSI: 367456770.

Date/timePositionNaut miles runAvg speedWind from/ knotsBaromVisibWave heightAir tempDewpointWater temp
2018-Jan-19 14:13N 29°29' W 094°52'2 7.2
2018-Jan-19 13:58N 29°30' W 094°53'3 7.1
2018-Jan-19 13:30N 29°33' W 094°55'3 6.7
2018-Jan-19 13:00N 29°36' W 094°57'4 7.3
2018-Jan-19 12:30N 29°39' W 094°58'3 6.7
2018-Jan-19 12:00N 29°42' W 095°01'6 2.4
2018-Jan-19 09:33N 29°47' W 095°04'1 3.4
2018-Jan-19 09:18N 29°46' W 095°05'0 0.0
2018-Jan-19 08:51N 29°46' W 095°05'5 0.4
2018-Jan-18 18:52N 29°42' W 095°01'3 6.7
2018-Jan-18 18:29N 29°41' W 094°59'4 7.4
2018-Jan-18 18:00N 29°37' W 094°58'4 7.6
2018-Jan-18 17:28N 29°34' W 094°55'  
2018-Jan-11 02:17N 29°29' W 094°52'2 7.5
2018-Jan-11 02:00N 29°31' W 094°53'4 7.6
2018-Jan-11 01:30N 29°34' W 094°55'4 7.7
2018-Jan-11 01:00N 29°37' W 094°57'4 7.8
2018-Jan-11 00:30N 29°41' W 094°59'4 6.0
2018-Jan-10 23:54N 29°44' W 095°02'3 5.7
2018-Jan-10 23:23N 29°45' W 095°04'2 1.0
2018-Jan-10 21:16N 29°47' W 095°04'0 0.0
2018-Jan-10 20:58N 29°47' W 095°04'0 0.2
2018-Jan-10 20:31N 29°47' W 095°04'3 0.4
2018-Jan-10 11:07N 29°44' W 095°03'2 6.2
2018-Jan-10 10:49N 29°43' W 095°01'2 5.6
2018-Jan-10 10:29N 29°42' W 094°60'3 6.5
2018-Jan-10 09:59N 29°39' W 094°58'4 8.1
2018-Jan-10 09:29N 29°35' W 094°56'  
Track history (hours):
 
Tides and Currents Weather Stations Pressure Air Temp Water Temp Dewpoint Dewpoint Depression Visibility Wind Speed Wind Dir Waves Ship Positions

Coushatta

Last reported at 2018-Jan-19 14:13 UTC. Time now 2018-Jan-20 18:35 UTC.
Position N 29°29' W 094°52'.

Length 22 m; draft 3 m.

Type: Towing. MMSI: 367456770.

Date/timePositionNaut miles runAvg speedWind from/ knotsBaromVisibWave heightAir tempDewpointWater temp
2018-Jan-19 14:13N 29°29' W 094°52'2 7.2
2018-Jan-19 13:58N 29°30' W 094°53'3 7.1
2018-Jan-19 13:30N 29°33' W 094°55'3 6.7
2018-Jan-19 13:00N 29°36' W 094°57'4 7.3
2018-Jan-19 12:30N 29°39' W 094°58'3 6.7
2018-Jan-19 12:00N 29°42' W 095°01'6 2.4
2018-Jan-19 09:33N 29°47' W 095°04'1 3.4
2018-Jan-19 09:18N 29°46' W 095°05'0 0.0
2018-Jan-19 08:51N 29°46' W 095°05'5 0.4
2018-Jan-18 18:52N 29°42' W 095°01'3 6.7
2018-Jan-18 18:29N 29°41' W 094°59'4 7.4
2018-Jan-18 18:00N 29°37' W 094°58'4 7.6
2018-Jan-18 17:28N 29°34' W 094°55'  
2018-Jan-11 02:17N 29°29' W 094°52'2 7.5
2018-Jan-11 02:00N 29°31' W 094°53'4 7.6
2018-Jan-11 01:30N 29°34' W 094°55'4 7.7
2018-Jan-11 01:00N 29°37' W 094°57'4 7.8
2018-Jan-11 00:30N 29°41' W 094°59'4 6.0
2018-Jan-10 23:54N 29°44' W 095°02'3 5.7
2018-Jan-10 23:23N 29°45' W 095°04'2 1.0
2018-Jan-10 21:16N 29°47' W 095°04'0 0.0
2018-Jan-10 20:58N 29°47' W 095°04'0 0.2
2018-Jan-10 20:31N 29°47' W 095°04'3 0.4
2018-Jan-10 11:07N 29°44' W 095°03'2 6.2
2018-Jan-10 10:49N 29°43' W 095°01'2 5.6
2018-Jan-10 10:29N 29°42' W 094°60'3 6.5
2018-Jan-10 09:59N 29°39' W 094°58'4 8.1
2018-Jan-10 09:29N 29°35' W 094°56'  

Dump ship's entire track history